sensor_id;sensor_type;location;lat;lon;timestamp;pressure;altitude;pressure_sealevel;temperature;humidity
62418;BME280;48456;54.242;10.280;2023-02-19T00:01:36;101314.63;;;2.04;100.00
62418;BME280;48456;54.242;10.280;2023-02-19T00:04:04;101311.13;;;2.04;100.00
62418;BME280;48456;54.242;10.280;2023-02-19T00:06:31;101315.47;;;2.03;100.00
62418;BME280;48456;54.242;10.280;2023-02-19T00:08:58;101319.09;;;2.07;100.00
62418;BME280;48456;54.242;10.280;2023-02-19T00:11:26;101318.31;;;2.10;100.00
62418;BME280;48456;54.242;10.280;2023-02-19T00:13:53;101321.88;;;2.12;100.00
62418;BME280;48456;54.242;10.280;2023-02-19T00:16:21;101326.28;;;2.13;100.00
62418;BME280;48456;54.242;10.280;2023-02-19T00:18:48;101323.66;;;2.13;100.00
62418;BME280;48456;54.242;10.280;2023-02-19T00:21:15;101329.78;;;2.13;100.00
62418;BME280;48456;54.242;10.280;2023-02-19T00:23:41;101337.53;;;2.12;100.00
62418;BME280;48456;54.242;10.280;2023-02-19T00:26:09;101329.78;;;2.13;100.00
62418;BME280;48456;54.242;10.280;2023-02-19T00:28:44;101328.94;;;2.14;100.00
62418;BME280;48456;54.242;10.280;2023-02-19T00:31:15;101331.63;;;2.16;100.00
62418;BME280;48456;54.242;10.280;2023-02-19T00:33:41;101330.78;;;2.17;100.00
62418;BME280;48456;54.242;10.280;2023-02-19T00:36:08;101334.38;;;2.20;100.00
62418;BME280;48456;54.242;10.280;2023-02-19T00:38:35;101332.75;;;2.23;100.00
62418;BME280;48456;54.242;10.280;2023-02-19T00:41:02;101335.34;;;2.23;100.00
62418;BME280;48456;54.242;10.280;2023-02-19T00:43:47;101342.34;;;2.24;100.00
62418;BME280;48456;54.242;10.280;2023-02-19T00:46:57;101342.28;;;2.22;100.00
62418;BME280;48456;54.242;10.280;2023-02-19T00:49:04;101345.78;;;2.23;100.00
62418;BME280;48456;54.242;10.280;2023-02-19T00:51:32;101357.09;;;2.23;100.00
62418;BME280;48456;54.242;10.280;2023-02-19T00:53:59;101354.47;;;2.22;100.00
62418;BME280;48456;54.242;10.280;2023-02-19T00:56:26;101344.97;;;2.24;100.00
62418;BME280;48456;54.242;10.280;2023-02-19T00:58:52;101348.63;;;2.29;100.00
62418;BME280;48456;54.242;10.280;2023-02-19T01:01:19;101344.25;;;2.28;100.00
62418;BME280;48456;54.242;10.280;2023-02-19T01:03:45;101349.41;;;2.26;100.00
62418;BME280;48456;54.242;10.280;2023-02-19T01:06:12;101348.56;;;2.27;100.00
62418;BME280;48456;54.242;10.280;2023-02-19T01:08:39;101348.63;;;2.29;100.00
62418;BME280;48456;54.242;10.280;2023-02-19T01:11:06;101346.00;;;2.29;100.00
62418;BME280;48456;54.242;10.280;2023-02-19T01:13:33;101346.78;;;2.26;100.00
62418;BME280;48456;54.242;10.280;2023-02-19T01:18:29;101345.84;;;2.24;100.00
62418;BME280;48456;54.242;10.280;2023-02-19T01:20:55;101350.31;;;2.27;100.00
62418;BME280;48456;54.242;10.280;2023-02-19T01:23:22;101353.72;;;2.26;100.00
62418;BME280;48456;54.242;10.280;2023-02-19T01:25:48;101356.25;;;2.23;100.00
62418;BME280;48456;54.242;10.280;2023-02-19T01:28:14;101352.78;;;2.24;100.00
62418;BME280;48456;54.242;10.280;2023-02-19T01:30:41;101352.72;;;2.22;100.00
62418;BME280;48456;54.242;10.280;2023-02-19T01:33:08;101358.00;;;2.24;100.00
62418;BME280;48456;54.242;10.280;2023-02-19T01:35:37;101350.19;;;2.24;100.00
62418;BME280;48456;54.242;10.280;2023-02-19T01:38:03;101349.28;;;2.23;100.00
62418;BME280;48456;54.242;10.280;2023-02-19T01:40:33;101357.88;;;2.20;100.00
62418;BME280;48456;54.242;10.280;2023-02-19T01:42:59;101357.00;;;2.20;100.00
62418;BME280;48456;54.242;10.280;2023-02-19T01:45:27;101354.50;;;2.23;100.00
62418;BME280;48456;54.242;10.280;2023-02-19T01:47:56;101359.69;;;2.22;100.00
62418;BME280;48456;54.242;10.280;2023-02-19T01:50:24;101362.31;;;2.23;100.00
62418;BME280;48456;54.242;10.280;2023-02-19T01:52:52;101364.13;;;2.24;100.00
62418;BME280;48456;54.242;10.280;2023-02-19T01:55:19;101358.00;;;2.24;100.00
62418;BME280;48456;54.242;10.280;2023-02-19T01:57:45;101360.56;;;2.22;100.00
62418;BME280;48456;54.242;10.280;2023-02-19T02:00:14;101357.09;;;2.23;100.00
62418;BME280;48456;54.242;10.280;2023-02-19T02:02:42;101359.72;;;2.23;100.00
62418;BME280;48456;54.242;10.280;2023-02-19T02:05:14;101365.66;;;2.19;100.00
62418;BME280;48456;54.242;10.280;2023-02-19T02:07:43;101359.44;;;2.15;100.00
62418;BME280;48456;54.242;10.280;2023-02-19T02:10:28;101359.94;;;2.06;100.00
62418;BME280;48456;54.242;10.280;2023-02-19T02:12:55;101355.63;;;2.07;100.00
62418;BME280;48456;54.242;10.280;2023-02-19T02:15:23;101354.69;;;2.05;100.00
62418;BME280;48456;54.242;10.280;2023-02-19T02:17:58;101351.19;;;2.04;100.00
62418;BME280;48456;54.242;10.280;2023-02-19T02:25:47;101336.88;;;1.94;100.00
62418;BME280;48456;54.242;10.280;2023-02-19T02:30:58;101330.59;;;1.89;100.00
62418;BME280;48456;54.242;10.280;2023-02-19T02:33:31;101329.63;;;1.87;100.00
62418;BME280;48456;54.242;10.280;2023-02-19T02:38:31;101326.00;;;1.84;100.00
62418;BME280;48456;54.242;10.280;2023-02-19T02:40:59;101312.75;;;1.79;100.00
62418;BME280;48456;54.242;10.280;2023-02-19T02:43:26;101307.50;;;1.77;100.00
62418;BME280;48456;54.242;10.280;2023-02-19T02:45:53;101323.97;;;1.76;100.00
62418;BME280;48456;54.242;10.280;2023-02-19T02:48:22;101319.41;;;1.71;100.00
62418;BME280;48456;54.242;10.280;2023-02-19T02:50:58;101320.94;;;1.65;100.00
62418;BME280;48456;54.242;10.280;2023-02-19T02:56:13;101315.47;;;1.59;100.00
62418;BME280;48456;54.242;10.280;2023-02-19T02:58:41;101319.56;;;1.52;100.00
62418;BME280;48456;54.242;10.280;2023-02-19T03:01:08;101319.41;;;1.49;100.00
62418;BME280;48456;54.242;10.280;2023-02-19T03:03:59;101315.81;;;1.46;100.00
62418;BME280;48456;54.242;10.280;2023-02-19T03:06:27;101321.03;;;1.46;100.00
62418;BME280;48456;54.242;10.280;2023-02-19T03:08:57;101325.31;;;1.45;100.00
62418;BME280;48456;54.242;10.280;2023-02-19T03:11:25;101322.59;;;1.42;100.00
62418;BME280;48456;54.242;10.280;2023-02-19T03:14:12;101326.88;;;1.40;100.00
62418;BME280;48456;54.242;10.280;2023-02-19T03:17:05;101326.72;;;1.37;100.00
62418;BME280;48456;54.242;10.280;2023-02-19T03:19:53;101325.72;;;1.33;100.00
62418;BME280;48456;54.242;10.280;2023-02-19T03:22:30;101335.06;;;1.28;100.00
62418;BME280;48456;54.242;10.280;2023-02-19T03:24:59;101341.84;;;1.24;100.00
62418;BME280;48456;54.242;10.280;2023-02-19T03:27:45;101328.56;;;1.18;100.00
62418;BME280;48456;54.242;10.280;2023-02-19T03:30:17;101341.59;;;1.18;100.00
62418;BME280;48456;54.242;10.280;2023-02-19T03:32:54;101338.78;;;1.13;100.00
62418;BME280;48456;54.242;10.280;2023-02-19T03:35:23;101349.91;;;1.09;100.00
62418;BME280;48456;54.242;10.280;2023-02-19T03:37:56;101347.97;;;1.05;100.00
62418;BME280;48456;54.242;10.280;2023-02-19T03:40:26;101349.75;;;1.06;100.00
62418;BME280;48456;54.242;10.280;2023-02-19T03:43:07;101352.25;;;1.03;100.00
62418;BME280;48456;54.242;10.280;2023-02-19T03:48:17;101353.41;;;0.90;100.00
62418;BME280;48456;54.242;10.280;2023-02-19T03:51:12;101355.06;;;0.88;100.00
62418;BME280;48456;54.242;10.280;2023-02-19T03:56:39;101368.88;;;0.87;100.00
62418;BME280;48456;54.242;10.280;2023-02-19T03:59:09;101362.75;;;0.85;100.00
62418;BME280;48456;54.242;10.280;2023-02-19T04:01:41;101367.88;;;0.83;100.00
62418;BME280;48456;54.242;10.280;2023-02-19T04:04:32;101366.97;;;0.83;100.00
62418;BME280;48456;54.242;10.280;2023-02-19T04:06:56;101384.13;;;0.77;100.00
62418;BME280;48456;54.242;10.280;2023-02-19T04:09:24;101383.97;;;0.74;100.00
62418;BME280;48456;54.242;10.280;2023-02-19T04:11:52;101389.06;;;0.71;100.00
62418;BME280;48456;54.242;10.280;2023-02-19T04:14:21;101390.59;;;0.68;100.00
62418;BME280;48456;54.242;10.280;2023-02-19T04:16:50;101393.97;;;0.65;100.00
62418;BME280;48456;54.242;10.280;2023-02-19T04:19:20;101401.59;;;0.60;100.00
62418;BME280;48456;54.242;10.280;2023-02-19T04:21:49;101402.19;;;0.55;100.00
62418;BME280;48456;54.242;10.280;2023-02-19T04:24:21;101397.59;;;0.49;100.00
62418;BME280;48456;54.242;10.280;2023-02-19T04:26:48;101409.50;;;0.44;100.00
62418;BME280;48456;54.242;10.280;2023-02-19T04:29:14;101423.19;;;0.40;100.00
62418;BME280;48456;54.242;10.280;2023-02-19T04:31:41;101417.00;;;0.37;100.00
62418;BME280;48456;54.242;10.280;2023-02-19T04:34:07;101425.63;;;0.36;100.00
62418;BME280;48456;54.242;10.280;2023-02-19T04:36:33;101432.41;;;0.33;100.00
62418;BME280;48456;54.242;10.280;2023-02-19T04:39:00;101443.56;;;0.30;100.00
62418;BME280;48456;54.242;10.280;2023-02-19T04:41:26;101441.69;;;0.28;100.00
62418;BME280;48456;54.242;10.280;2023-02-19T04:43:52;101435.44;;;0.24;100.00
62418;BME280;48456;54.242;10.280;2023-02-19T04:46:19;101439.84;;;0.25;100.00
62418;BME280;48456;54.242;10.280;2023-02-19T04:48:45;101446.09;;;0.29;100.00
62418;BME280;48456;54.242;10.280;2023-02-19T04:51:11;101445.34;;;0.31;100.00
62418;BME280;48456;54.242;10.280;2023-02-19T04:53:38;101447.94;;;0.31;100.00
62418;BME280;48456;54.242;10.280;2023-02-19T04:56:05;101447.13;;;0.32;100.00
62418;BME280;48456;54.242;10.280;2023-02-19T04:58:32;101442.75;;;0.31;100.00
62418;BME280;48456;54.242;10.280;2023-02-19T05:00:58;101446.19;;;0.30;100.00
62418;BME280;48456;54.242;10.280;2023-02-19T05:03:25;101445.28;;;0.30;100.00
62418;BME280;48456;54.242;10.280;2023-02-19T05:05:51;101434.88;;;0.30;100.00
62418;BME280;48456;54.242;10.280;2023-02-19T05:08:18;101442.66;;;0.30;100.00
62418;BME280;48456;54.242;10.280;2023-02-19T05:10:44;101446.03;;;0.27;100.00
62418;BME280;48456;54.242;10.280;2023-02-19T05:13:10;101445.03;;;0.25;100.00
62418;BME280;48456;54.242;10.280;2023-02-19T05:15:37;101453.50;;;0.21;100.00
62418;BME280;48456;54.242;10.280;2023-02-19T05:18:03;101460.38;;;0.19;100.00
62418;BME280;48456;54.242;10.280;2023-02-19T05:20:29;101463.72;;;0.16;100.00
62418;BME280;48456;54.242;10.280;2023-02-19T05:22:56;101462.72;;;0.14;100.00
62418;BME280;48456;54.242;10.280;2023-02-19T05:25:22;101470.47;;;0.12;100.00
62418;BME280;48456;54.242;10.280;2023-02-19T05:27:48;101468.69;;;0.11;100.00
62418;BME280;48456;54.242;10.280;2023-02-19T05:30:15;101470.25;;;0.08;100.00
62418;BME280;48456;54.242;10.280;2023-02-19T05:32:41;101476.19;;;0.05;100.00
62418;BME280;48456;54.242;10.280;2023-02-19T05:35:07;101490.06;;;0.06;100.00
62418;BME280;48456;54.242;10.280;2023-02-19T05:37:34;101488.28;;;0.05;100.00
62418;BME280;48456;54.242;10.280;2023-02-19T05:40:00;101491.63;;;0.02;100.00
62418;BME280;48456;54.242;10.280;2023-02-19T05:42:28;101487.34;;;0.03;100.00
62418;BME280;48456;54.242;10.280;2023-02-19T05:44:54;101488.13;;;0.02;100.00
62418;BME280;48456;54.242;10.280;2023-02-19T05:47:20;101487.25;;;0.01;100.00
62418;BME280;48456;54.242;10.280;2023-02-19T05:49:47;101490.75;;;0.02;100.00
62418;BME280;48456;54.242;10.280;2023-02-19T05:52:13;101489.88;;;0.01;100.00
62418;BME280;48456;54.242;10.280;2023-02-19T05:54:39;101504.66;;;0.02;100.00
62418;BME280;48456;54.242;10.280;2023-02-19T05:57:06;101503.69;;;0.00;100.00
62418;BME280;48456;54.242;10.280;2023-02-19T05:59:32;101518.41;;;-0.01;100.00
62418;BME280;48456;54.242;10.280;2023-02-19T06:01:58;101523.75;;;0.03;100.00
62418;BME280;48456;54.242;10.280;2023-02-19T06:04:25;101529.75;;;0.02;100.00
62418;BME280;48456;54.242;10.280;2023-02-19T06:06:51;101540.16;;;0.02;100.00
62418;BME280;48456;54.242;10.280;2023-02-19T06:09:17;101537.34;;;-0.03;100.00
62418;BME280;48456;54.242;10.280;2023-02-19T06:11:44;101543.59;;;0.01;100.00
62418;BME280;48456;54.242;10.280;2023-02-19T06:14:11;101541.06;;;0.02;100.00
62418;BME280;48456;54.242;10.280;2023-02-19T06:16:38;101537.50;;;0.00;100.00
62418;BME280;48456;54.242;10.280;2023-02-19T06:19:04;101539.13;;;-0.02;100.00
62418;BME280;48456;54.242;10.280;2023-02-19T06:21:31;101544.41;;;-0.01;100.00
62418;BME280;48456;54.242;10.280;2023-02-19T06:23:57;101545.44;;;0.03;100.00
62418;BME280;48456;54.242;10.280;2023-02-19T06:26:24;101554.31;;;0.07;100.00
62418;BME280;48456;54.242;10.280;2023-02-19T06:28:51;101555.28;;;0.09;100.00
62418;BME280;48456;54.242;10.280;2023-02-19T06:31:18;101564.00;;;0.09;100.00
62418;BME280;48456;54.242;10.280;2023-02-19T06:33:45;101558.91;;;0.12;100.00
62418;BME280;48456;54.242;10.280;2023-02-19T06:36:16;101566.81;;;0.14;100.00
62418;BME280;48456;54.242;10.280;2023-02-19T06:38:43;101561.59;;;0.14;100.00
62418;BME280;48456;54.242;10.280;2023-02-19T06:41:09;101569.56;;;0.17;100.00
62418;BME280;48456;54.242;10.280;2023-02-19T06:43:37;101575.75;;;0.19;100.00
62418;BME280;48456;54.242;10.280;2023-02-19T06:46:04;101575.81;;;0.21;100.00
62418;BME280;48456;54.242;10.280;2023-02-19T06:48:31;101583.78;;;0.24;100.00
62418;BME280;48456;54.242;10.280;2023-02-19T06:50:58;101601.09;;;0.23;100.00
62418;BME280;48456;54.242;10.280;2023-02-19T06:53:24;101606.38;;;0.25;100.00
62418;BME280;48456;54.242;10.280;2023-02-19T06:56:01;101607.38;;;0.27;100.00
62418;BME280;48456;54.242;10.280;2023-02-19T06:58:28;101608.41;;;0.31;100.00
62418;BME280;48456;54.242;10.280;2023-02-19T07:00:54;101611.00;;;0.31;100.00
62418;BME280;48456;54.242;10.280;2023-02-19T07:03:21;101615.56;;;0.35;100.00
62418;BME280;48456;54.242;10.280;2023-02-19T07:05:48;101620.75;;;0.35;100.00
62418;BME280;48456;54.242;10.280;2023-02-19T07:08:14;101631.09;;;0.33;100.00
62418;BME280;48456;54.242;10.280;2023-02-19T07:10:45;101638.69;;;0.29;100.00
62418;BME280;48456;54.242;10.280;2023-02-19T07:13:11;101648.03;;;0.25;100.00
62418;BME280;48456;54.242;10.280;2023-02-19T07:15:38;101644.53;;;0.24;100.00
62418;BME280;48456;54.242;10.280;2023-02-19T07:18:04;101649.66;;;0.23;100.00
62418;BME280;48456;54.242;10.280;2023-02-19T07:20:32;101650.41;;;0.20;100.00
62418;BME280;48456;54.242;10.280;2023-02-19T07:22:59;101658.22;;;0.20;100.00
62418;BME280;48456;54.242;10.280;2023-02-19T07:25:25;101658.88;;;0.16;100.00
62418;BME280;48456;54.242;10.280;2023-02-19T07:27:51;101660.47;;;0.14;100.00
62418;BME280;48456;54.242;10.280;2023-02-19T07:30:18;101666.50;;;0.13;100.00
62418;BME280;48456;54.242;10.280;2023-02-19T07:32:44;101669.94;;;0.12;100.00
62418;BME280;48456;54.242;10.280;2023-02-19T07:35:10;101679.44;;;0.11;100.00
62418;BME280;48456;54.242;10.280;2023-02-19T07:37:37;101677.72;;;0.12;100.00
62418;BME280;48456;54.242;10.280;2023-02-19T07:40:03;101688.97;;;0.11;100.00
62418;BME280;48456;54.242;10.280;2023-02-19T07:42:30;101691.56;;;0.11;100.00
62418;BME280;48456;54.242;10.280;2023-02-19T07:44:56;101700.41;;;0.15;100.00
62418;BME280;48456;54.242;10.280;2023-02-19T07:47:25;101706.75;;;0.20;100.00
62418;BME280;48456;54.242;10.280;2023-02-19T07:49:52;101713.81;;;0.22;100.00
62418;BME280;48456;54.242;10.280;2023-02-19T07:52:18;101715.03;;;0.29;100.00
62418;BME280;48456;54.242;10.280;2023-02-19T07:54:44;101711.94;;;0.36;100.00
62418;BME280;48456;54.242;10.280;2023-02-19T07:57:11;101718.44;;;0.45;100.00
62418;BME280;48456;54.242;10.280;2023-02-19T07:59:37;101717.97;;;0.52;100.00
62418;BME280;48456;54.242;10.280;2023-02-19T08:02:03;101718.19;;;0.57;100.00
62418;BME280;48456;54.242;10.280;2023-02-19T08:04:48;101729.16;;;0.68;100.00
62418;BME280;48456;54.242;10.280;2023-02-19T08:07:15;101728.56;;;0.73;100.00
62418;BME280;48456;54.242;10.280;2023-02-19T08:09:41;101728.91;;;0.80;100.00
62418;BME280;48456;54.242;10.280;2023-02-19T08:12:08;101725.63;;;0.84;100.00
62418;BME280;48456;54.242;10.280;2023-02-19T08:14:54;101726.00;;;0.92;100.00
62418;BME280;48456;54.242;10.280;2023-02-19T08:17:20;101728.13;;;0.99;100.00
62418;BME280;48456;54.242;10.280;2023-02-19T08:19:47;101726.72;;;1.06;100.00
62418;BME280;48456;54.242;10.280;2023-02-19T08:22:13;101728.88;;;1.14;100.00
62418;BME280;48456;54.242;10.280;2023-02-19T08:24:41;101725.00;;;1.24;100.00
62418;BME280;48456;54.242;10.280;2023-02-19T08:27:08;101735.75;;;1.31;100.00
62418;BME280;48456;54.242;10.280;2023-02-19T08:29:34;101735.00;;;1.33;100.00
62418;BME280;48456;54.242;10.280;2023-02-19T08:32:00;101738.88;;;1.41;100.00
62418;BME280;48456;54.242;10.280;2023-02-19T08:34:27;101737.38;;;1.47;100.00
62418;BME280;48456;54.242;10.280;2023-02-19T08:36:53;101759.28;;;1.50;100.00
62418;BME280;48456;54.242;10.280;2023-02-19T08:39:19;101749.22;;;1.58;100.00
62418;BME280;48456;54.242;10.280;2023-02-19T08:41:46;101753.38;;;1.73;100.00
62418;BME280;48456;54.242;10.280;2023-02-19T08:44:13;101759.41;;;1.90;100.00
62418;BME280;48456;54.242;10.280;2023-02-19T08:46:39;101765.13;;;2.01;100.00
62418;BME280;48456;54.242;10.280;2023-02-19T08:49:05;101766.50;;;2.12;100.00
62418;BME280;48456;54.242;10.280;2023-02-19T08:51:32;101773.03;;;2.22;100.00
62418;BME280;48456;54.242;10.280;2023-02-19T08:54:00;101772.75;;;2.36;100.00
62418;BME280;48456;54.242;10.280;2023-02-19T08:56:27;101771.47;;;2.45;100.00
62418;BME280;48456;54.242;10.280;2023-02-19T08:58:53;101762.25;;;2.54;100.00
62418;BME280;48456;54.242;10.280;2023-02-19T09:01:19;101754.72;;;2.60;100.00
62418;BME280;48456;54.242;10.280;2023-02-19T09:03:46;101747.13;;;2.66;100.00
62418;BME280;48456;54.242;10.280;2023-02-19T09:06:16;101757.81;;;2.72;100.00
62418;BME280;48456;54.242;10.280;2023-02-19T09:08:43;101752.03;;;2.80;100.00
62418;BME280;48456;54.242;10.280;2023-02-19T09:11:09;101753.09;;;2.83;100.00
62418;BME280;48456;54.242;10.280;2023-02-19T09:13:36;101757.56;;;2.86;100.00
62418;BME280;48456;54.242;10.280;2023-02-19T09:16:03;101769.16;;;2.93;100.00
62418;BME280;48456;54.242;10.280;2023-02-19T09:18:30;101770.47;;;3.03;100.00
62418;BME280;48456;54.242;10.280;2023-02-19T09:20:58;101770.69;;;3.09;100.00
62418;BME280;48456;54.242;10.280;2023-02-19T09:23:25;101775.09;;;3.10;100.00
62418;BME280;48456;54.242;10.280;2023-02-19T09:25:58;101773.63;;;3.17;100.00
62418;BME280;48456;54.242;10.280;2023-02-19T09:28:25;101777.38;;;3.23;100.00
62418;BME280;48456;54.242;10.280;2023-02-19T09:30:52;101768.66;;;3.23;100.00
62418;BME280;48456;54.242;10.280;2023-02-19T09:33:18;101776.81;;;3.31;100.00
62418;BME280;48456;54.242;10.280;2023-02-19T09:35:44;101782.97;;;3.31;100.00
62418;BME280;48456;54.242;10.280;2023-02-19T09:38:11;101790.09;;;3.35;100.00
62418;BME280;48456;54.242;10.280;2023-02-19T09:40:37;101792.19;;;3.44;100.00
62418;BME280;48456;54.242;10.280;2023-02-19T09:43:05;101794.16;;;3.50;100.00
62418;BME280;48456;54.242;10.280;2023-02-19T09:45:32;101781.03;;;3.48;100.00
62418;BME280;48456;54.242;10.280;2023-02-19T09:47:59;101786.50;;;3.55;100.00
62418;BME280;48456;54.242;10.280;2023-02-19T09:50:29;101789.22;;;3.58;100.00
62418;BME280;48456;54.242;10.280;2023-02-19T09:52:57;101792.13;;;3.64;100.00
62418;BME280;48456;54.242;10.280;2023-02-19T09:57:56;101796.00;;;3.74;100.00
62418;BME280;48456;54.242;10.280;2023-02-19T10:00:32;101796.00;;;3.74;100.00
62418;BME280;48456;54.242;10.280;2023-02-19T10:03:03;101813.78;;;3.83;100.00
62418;BME280;48456;54.242;10.280;2023-02-19T10:05:30;101821.81;;;3.87;100.00
62418;BME280;48456;54.242;10.280;2023-02-19T10:07:57;101831.59;;;3.92;100.00
62418;BME280;48456;54.242;10.280;2023-02-19T10:12:51;101838.44;;;3.88;100.00
62418;BME280;48456;54.242;10.280;2023-02-19T10:15:33;101850.75;;;3.90;100.00
62418;BME280;48456;54.242;10.280;2023-02-19T10:18:03;101863.94;;;3.94;100.00
62418;BME280;48456;54.242;10.280;2023-02-19T10:20:30;101858.84;;;3.97;100.00
62418;BME280;48456;54.242;10.280;2023-02-19T10:22:58;101866.75;;;3.98;100.00
62418;BME280;48456;54.242;10.280;2023-02-19T10:25:26;101864.28;;;4.01;100.00
62418;BME280;48456;54.242;10.280;2023-02-19T10:27:52;101876.47;;;4.01;100.00
62418;BME280;48456;54.242;10.280;2023-02-19T10:30:28;101883.66;;;4.07;100.00
62418;BME280;48456;54.242;10.280;2023-02-19T10:33:08;101876.88;;;4.12;100.00
62418;BME280;48456;54.242;10.280;2023-02-19T10:35:36;101885.28;;;4.26;100.00
62418;BME280;48456;54.242;10.280;2023-02-19T10:38:03;101884.53;;;4.28;100.00
62418;BME280;48456;54.242;10.280;2023-02-19T10:40:31;101890.88;;;4.35;100.00
62418;BME280;48456;54.242;10.280;2023-02-19T10:43:00;101889.09;;;4.34;100.00
62418;BME280;48456;54.242;10.280;2023-02-19T10:47:53;101888.75;;;4.48;100.00
62418;BME280;48456;54.242;10.280;2023-02-19T10:50:27;101904.75;;;4.55;100.00
62418;BME280;48456;54.242;10.280;2023-02-19T10:52:55;101909.78;;;4.49;100.00
62418;BME280;48456;54.242;10.280;2023-02-19T10:55:33;101919.72;;;4.58;100.00
62418;BME280;48456;54.242;10.280;2023-02-19T10:58:36;101903.94;;;4.57;100.00
62418;BME280;48456;54.242;10.280;2023-02-19T11:01:09;101908.56;;;4.64;100.00
62418;BME280;48456;54.242;10.280;2023-02-19T11:03:36;101907.91;;;4.70;100.00
62418;BME280;48456;54.242;10.280;2023-02-19T11:06:03;101904.75;;;4.78;100.00
62418;BME280;48456;54.242;10.280;2023-02-19T11:08:33;101902.41;;;4.86;100.00
62418;BME280;48456;54.242;10.280;2023-02-19T11:11:05;101905.09;;;4.88;100.00
62418;BME280;48456;54.242;10.280;2023-02-19T11:13:31;101904.38;;;4.92;100.00
62418;BME280;48456;54.242;10.280;2023-02-19T11:16:03;101917.59;;;4.95;100.00
62418;BME280;48456;54.242;10.280;2023-02-19T11:18:30;101911.13;;;5.10;100.00
62418;BME280;48456;54.242;10.280;2023-02-19T11:20:58;101914.06;;;5.19;100.00
62418;BME280;48456;54.242;10.280;2023-02-19T11:25:58;101922.47;;;6.13;100.00
62418;BME280;48456;54.242;10.280;2023-02-19T11:28:38;101909.41;;;7.35;100.00
62418;BME280;48456;54.242;10.280;2023-02-19T11:33:52;101920.59;;;9.64;100.00
62418;BME280;48456;54.242;10.280;2023-02-19T11:38:46;101924.13;;;10.20;100.00
62418;BME280;48456;54.242;10.280;2023-02-19T12:02:26;101922.03;;;11.25;100.00
62418;BME280;48456;54.242;10.280;2023-02-19T12:05:11;101925.75;;;11.44;92.18
62418;BME280;48456;54.242;10.280;2023-02-19T12:10:34;101943.16;;;11.22;94.49
62418;BME280;48456;54.242;10.280;2023-02-19T12:21:03;101947.34;;;11.01;86.53
62418;BME280;48456;54.242;10.280;2023-02-19T12:26:18;101938.50;;;11.88;94.48
62418;BME280;48456;54.242;10.280;2023-02-19T12:28:51;101938.72;;;12.11;92.79
62418;BME280;48456;54.242;10.280;2023-02-19T12:37:08;101941.44;;;12.17;88.49
62418;BME280;48456;54.242;10.280;2023-02-19T12:39:38;101943.03;;;12.00;84.21
62418;BME280;48456;54.242;10.280;2023-02-19T12:44:41;101939.25;;;11.73;83.95
62418;BME280;48456;54.242;10.280;2023-02-19T12:47:14;101943.34;;;11.38;90.01
62418;BME280;48456;54.242;10.280;2023-02-19T12:49:42;101934.84;;;11.73;99.17
62418;BME280;48456;54.242;10.280;2023-02-19T12:52:14;101928.25;;;12.33;92.13
62418;BME280;48456;54.242;10.280;2023-02-19T12:54:44;101920.38;;;12.45;70.48
62418;BME280;48456;54.242;10.280;2023-02-19T12:57:12;101913.97;;;12.11;71.76
62418;BME280;48456;54.242;10.280;2023-02-19T13:09:55;101889.66;;;13.11;71.51
62418;BME280;48456;54.242;10.280;2023-02-19T13:12:25;101893.28;;;13.45;69.34
62418;BME280;48456;54.242;10.280;2023-02-19T13:14:56;101896.41;;;12.27;75.23
62418;BME280;48456;54.242;10.280;2023-02-19T13:17:35;101896.53;;;12.52;79.40
62418;BME280;48456;54.242;10.280;2023-02-19T13:20:14;101903.81;;;12.99;71.73
62418;BME280;48456;54.242;10.280;2023-02-19T13:22:54;101897.59;;;13.00;76.47
62418;BME280;48456;54.242;10.280;2023-02-19T13:25:47;101902.13;;;13.22;73.19
62418;BME280;48456;54.242;10.280;2023-02-19T13:36:14;101895.00;;;11.62;91.80
62418;BME280;48456;54.242;10.280;2023-02-19T13:38:42;101903.44;;;10.49;100.00
62418;BME280;48456;54.242;10.280;2023-02-19T13:41:20;101905.16;;;9.88;100.00
62418;BME280;48456;54.242;10.280;2023-02-19T13:43:53;101892.66;;;9.80;100.00
62418;BME280;48456;54.242;10.280;2023-02-19T13:46:20;101904.19;;;9.83;100.00
62418;BME280;48456;54.242;10.280;2023-02-19T13:48:46;101911.91;;;9.71;100.00
62418;BME280;48456;54.242;10.280;2023-02-19T13:56:52;101904.56;;;8.63;100.00
62418;BME280;48456;54.242;10.280;2023-02-19T14:04:17;101913.28;;;8.59;100.00
62418;BME280;48456;54.242;10.280;2023-02-19T14:12:03;101922.69;;;8.89;100.00
62418;BME280;48456;54.242;10.280;2023-02-19T14:19:55;101926.00;;;7.65;100.00
62418;BME280;48456;54.242;10.280;2023-02-19T14:25:08;101918.38;;;7.11;100.00
62418;BME280;48456;54.242;10.280;2023-02-19T14:27:43;101908.66;;;6.76;100.00
62418;BME280;48456;54.242;10.280;2023-02-19T14:30:10;101898.53;;;6.60;100.00
62418;BME280;48456;54.242;10.280;2023-02-19T14:32:38;101898.88;;;6.42;100.00
62418;BME280;48456;54.242;10.280;2023-02-19T14:35:05;101896.84;;;6.33;100.00
62418;BME280;48456;54.242;10.280;2023-02-19T14:37:32;101889.19;;;6.41;100.00
62418;BME280;48456;54.242;10.280;2023-02-19T14:39:58;101887.44;;;6.40;100.00
62418;BME280;48456;54.242;10.280;2023-02-19T14:42:25;101878.41;;;6.60;100.00
62418;BME280;48456;54.242;10.280;2023-02-19T14:44:58;101885.84;;;6.75;100.00
62418;BME280;48456;54.242;10.280;2023-02-19T14:47:27;101886.38;;;6.94;100.00
62418;BME280;48456;54.242;10.280;2023-02-19T14:49:58;101882.50;;;7.13;100.00
62418;BME280;48456;54.242;10.280;2023-02-19T14:52:27;101886.31;;;7.25;100.00